Weather at Blackall Airport

Public forecast

Using degrees Celsius for public forecast. Weather courtesy of forecast.io.

Closest aviation weather report (METAR) to Blackall Airport

Report is more than 6 hours old.

Closest report is Longreach Airport, 87.0 nm (161.1 km) NW. Retrieved 2022/07/02 03:00 UTC (14 hours ago):

YLRE 020300Z AUTO 15010KT 9999 // OVC016 16/13 Q1019

Closest aviation forecast (TAF) to Blackall Airport

Closest forecast is Rockhampton Airport, 284.0 nm (526.0 km) ENE. Retrieved 2022/07/02 12:37 UTC (4 hours ago):

TAF YBRK 021117Z 0212/0312 22008KT 9999 -RA SCT010 BKN016 FM022300 22008KT 9999 -RA SCT025 INTER 0212/0218 3000 RA BKN005